Terminal Aerodrome Forecast
Issued by NWS

Home | Current Version | Previous Version | Text Only | Print | Product List | Glossary On
Versions: 1 2 3 4 5 6 7 8 9 10 11 12 13 14 15
000
FTUS46 KLOX 311100
TAFVNY
TAF
KVNY 311135Z 3112/0112 VRB03KT P6SM OVC008
     FM311400 VRB03KT P6SM OVC012
     FM312100 15008KT P6SM BKN025 BKN100
     FM010300 15008KT P6SM VCSH BKN015 OVC025
     FM010700 15008KT P6SM -SHRA OVC015
     FM011000 13010KT 4SM -RA BR SCT007 OVC015=

USA.gov is the U.S. government's official web portal to all federal, state and local government web resources and services.